sensor_id;sensor_type;location;lat;lon;timestamp;temperature;humidity
2389;DHT22;1205;47.984;7.668;2023-05-19T00:01:39;14.70;94.20
2389;DHT22;1205;47.984;7.668;2023-05-19T00:04:08;14.80;94.50
2389;DHT22;1205;47.984;7.668;2023-05-19T00:06:34;14.60;94.50
2389;DHT22;1205;47.984;7.668;2023-05-19T00:09:05;14.60;94.80
2389;DHT22;1205;47.984;7.668;2023-05-19T00:11:33;14.60;94.30
2389;DHT22;1205;47.984;7.668;2023-05-19T00:14:01;14.60;94.70
2389;DHT22;1205;47.984;7.668;2023-05-19T00:16:29;14.60;94.30
2389;DHT22;1205;47.984;7.668;2023-05-19T00:18:56;14.60;94.40
2389;DHT22;1205;47.984;7.668;2023-05-19T00:21:22;14.60;94.50
2389;DHT22;1205;47.984;7.668;2023-05-19T00:23:48;14.50;94.50
2389;DHT22;1205;47.984;7.668;2023-05-19T00:26:13;14.60;94.60
2389;DHT22;1205;47.984;7.668;2023-05-19T00:28:39;14.50;94.40
2389;DHT22;1205;47.984;7.668;2023-05-19T00:31:04;14.50;94.40
2389;DHT22;1205;47.984;7.668;2023-05-19T00:33:30;14.50;94.70
2389;DHT22;1205;47.984;7.668;2023-05-19T00:35:58;14.50;94.80
2389;DHT22;1205;47.984;7.668;2023-05-19T00:38:23;14.50;94.90
2389;DHT22;1205;47.984;7.668;2023-05-19T00:40:49;14.40;95.10
2389;DHT22;1205;47.984;7.668;2023-05-19T00:43:15;14.40;95.20
2389;DHT22;1205;47.984;7.668;2023-05-19T00:45:40;14.30;95.10
2389;DHT22;1205;47.984;7.668;2023-05-19T00:48:06;14.40;95.30
2389;DHT22;1205;47.984;7.668;2023-05-19T00:50:31;14.40;95.30
2389;DHT22;1205;47.984;7.668;2023-05-19T00:52:57;14.40;95.50
2389;DHT22;1205;47.984;7.668;2023-05-19T00:55:27;14.40;95.50
2389;DHT22;1205;47.984;7.668;2023-05-19T00:57:55;14.30;95.70
2389;DHT22;1205;47.984;7.668;2023-05-19T01:00:21;14.30;95.60
2389;DHT22;1205;47.984;7.668;2023-05-19T01:02:46;14.30;95.50
2389;DHT22;1205;47.984;7.668;2023-05-19T01:05:12;14.30;95.60
2389;DHT22;1205;47.984;7.668;2023-05-19T01:07:39;14.30;95.40
2389;DHT22;1205;47.984;7.668;2023-05-19T01:10:06;14.30;95.30
2389;DHT22;1205;47.984;7.668;2023-05-19T01:12:32;14.30;95.30
2389;DHT22;1205;47.984;7.668;2023-05-19T01:14:58;14.30;95.40
2389;DHT22;1205;47.984;7.668;2023-05-19T01:17:38;14.20;95.30
2389;DHT22;1205;47.984;7.668;2023-05-19T01:20:21;14.20;95.30
2389;DHT22;1205;47.984;7.668;2023-05-19T01:25:57;14.20;95.70
2389;DHT22;1205;47.984;7.668;2023-05-19T01:28:52;14.20;95.70
2389;DHT22;1205;47.984;7.668;2023-05-19T01:31:22;14.20;95.70
2389;DHT22;1205;47.984;7.668;2023-05-19T01:33:51;14.20;95.70
2389;DHT22;1205;47.984;7.668;2023-05-19T01:36:19;14.20;95.80
2389;DHT22;1205;47.984;7.668;2023-05-19T01:38:48;14.10;95.90
2389;DHT22;1205;47.984;7.668;2023-05-19T01:41:15;14.10;95.90
2389;DHT22;1205;47.984;7.668;2023-05-19T01:43:41;14.10;96.00
2389;DHT22;1205;47.984;7.668;2023-05-19T01:46:07;14.10;95.80
2389;DHT22;1205;47.984;7.668;2023-05-19T01:48:33;14.10;95.80
2389;DHT22;1205;47.984;7.668;2023-05-19T01:50:59;14.10;95.80
2389;DHT22;1205;47.984;7.668;2023-05-19T01:53:25;14.10;95.80
2389;DHT22;1205;47.984;7.668;2023-05-19T01:55:53;14.10;95.80
2389;DHT22;1205;47.984;7.668;2023-05-19T02:01:29;14.10;96.20
2389;DHT22;1205;47.984;7.668;2023-05-19T02:06:52;14.00;96.10
2389;DHT22;1205;47.984;7.668;2023-05-19T02:15:06;14.00;96.10
2389;DHT22;1205;47.984;7.668;2023-05-19T02:17:36;14.00;96.20
2389;DHT22;1205;47.984;7.668;2023-05-19T02:20:05;14.00;96.10
2389;DHT22;1205;47.984;7.668;2023-05-19T02:22:31;14.00;96.30
2389;DHT22;1205;47.984;7.668;2023-05-19T02:24:56;14.00;96.40
2389;DHT22;1205;47.984;7.668;2023-05-19T02:27:22;13.90;96.40
2389;DHT22;1205;47.984;7.668;2023-05-19T02:29:48;13.90;96.50
2389;DHT22;1205;47.984;7.668;2023-05-19T02:32:14;13.80;96.60
2389;DHT22;1205;47.984;7.668;2023-05-19T02:34:39;13.80;96.60
2389;DHT22;1205;47.984;7.668;2023-05-19T02:37:06;13.70;96.80
2389;DHT22;1205;47.984;7.668;2023-05-19T02:39:32;13.70;96.90
2389;DHT22;1205;47.984;7.668;2023-05-19T02:41:59;13.70;97.00
2389;DHT22;1205;47.984;7.668;2023-05-19T02:44:25;13.60;96.90
2389;DHT22;1205;47.984;7.668;2023-05-19T02:46:51;13.70;96.90
2389;DHT22;1205;47.984;7.668;2023-05-19T02:49:17;13.70;97.00
2389;DHT22;1205;47.984;7.668;2023-05-19T02:51:42;13.60;97.00
2389;DHT22;1205;47.984;7.668;2023-05-19T02:54:08;13.60;96.90
2389;DHT22;1205;47.984;7.668;2023-05-19T02:56:33;13.60;97.10
2389;DHT22;1205;47.984;7.668;2023-05-19T02:58:59;13.60;97.10
2389;DHT22;1205;47.984;7.668;2023-05-19T03:01:25;13.60;97.00
2389;DHT22;1205;47.984;7.668;2023-05-19T03:03:50;13.60;97.00
2389;DHT22;1205;47.984;7.668;2023-05-19T03:06:16;13.50;97.10
2389;DHT22;1205;47.984;7.668;2023-05-19T03:08:42;13.50;97.40
2389;DHT22;1205;47.984;7.668;2023-05-19T03:11:08;13.50;97.10
2389;DHT22;1205;47.984;7.668;2023-05-19T03:13:33;13.50;97.10
2389;DHT22;1205;47.984;7.668;2023-05-19T03:15:59;13.60;97.10
2389;DHT22;1205;47.984;7.668;2023-05-19T03:18:27;13.60;96.90
2389;DHT22;1205;47.984;7.668;2023-05-19T03:20:53;13.50;97.20
2389;DHT22;1205;47.984;7.668;2023-05-19T03:23:21;13.50;97.00
2389;DHT22;1205;47.984;7.668;2023-05-19T03:25:47;13.40;97.30
2389;DHT22;1205;47.984;7.668;2023-05-19T03:28:13;13.40;97.10
2389;DHT22;1205;47.984;7.668;2023-05-19T03:30:38;13.50;97.20
2389;DHT22;1205;47.984;7.668;2023-05-19T03:33:04;13.50;97.20
2389;DHT22;1205;47.984;7.668;2023-05-19T03:35:31;13.40;97.30
2389;DHT22;1205;47.984;7.668;2023-05-19T03:37:57;13.50;97.30
2389;DHT22;1205;47.984;7.668;2023-05-19T03:40:22;13.40;97.30
2389;DHT22;1205;47.984;7.668;2023-05-19T03:42:48;13.40;97.20
2389;DHT22;1205;47.984;7.668;2023-05-19T03:45:13;13.40;97.30
2389;DHT22;1205;47.984;7.668;2023-05-19T03:47:39;13.30;97.50
2389;DHT22;1205;47.984;7.668;2023-05-19T03:50:05;13.30;97.40
2389;DHT22;1205;47.984;7.668;2023-05-19T03:52:31;13.30;97.50
2389;DHT22;1205;47.984;7.668;2023-05-19T03:54:57;13.20;97.30
2389;DHT22;1205;47.984;7.668;2023-05-19T03:57:23;13.20;97.50
2389;DHT22;1205;47.984;7.668;2023-05-19T03:59:48;13.30;97.50
2389;DHT22;1205;47.984;7.668;2023-05-19T04:02:14;13.20;97.50
2389;DHT22;1205;47.984;7.668;2023-05-19T04:04:39;13.10;97.60
2389;DHT22;1205;47.984;7.668;2023-05-19T04:07:05;13.00;97.70
2389;DHT22;1205;47.984;7.668;2023-05-19T04:09:31;13.10;97.70
2389;DHT22;1205;47.984;7.668;2023-05-19T04:12:00;13.10;97.60
2389;DHT22;1205;47.984;7.668;2023-05-19T04:14:27;13.10;97.60
2389;DHT22;1205;47.984;7.668;2023-05-19T04:16:52;13.20;97.70
2389;DHT22;1205;47.984;7.668;2023-05-19T04:19:18;13.10;97.70
2389;DHT22;1205;47.984;7.668;2023-05-19T04:21:44;13.10;97.80
2389;DHT22;1205;47.984;7.668;2023-05-19T04:24:09;13.10;98.00
2389;DHT22;1205;47.984;7.668;2023-05-19T04:26:35;13.10;97.80
2389;DHT22;1205;47.984;7.668;2023-05-19T04:29:03;13.10;97.70
2389;DHT22;1205;47.984;7.668;2023-05-19T04:31:29;13.00;97.90
2389;DHT22;1205;47.984;7.668;2023-05-19T04:33:54;13.40;99.70
2389;DHT22;1205;47.984;7.668;2023-05-19T04:36:20;13.60;99.90
2389;DHT22;1205;47.984;7.668;2023-05-19T04:38:46;13.90;99.90
2389;DHT22;1205;47.984;7.668;2023-05-19T04:41:11;13.60;97.80
2389;DHT22;1205;47.984;7.668;2023-05-19T04:43:37;13.50;97.60
2389;DHT22;1205;47.984;7.668;2023-05-19T04:46:09;13.40;97.80
2389;DHT22;1205;47.984;7.668;2023-05-19T04:48:35;13.40;97.80
2389;DHT22;1205;47.984;7.668;2023-05-19T04:51:01;13.30;98.10
2389;DHT22;1205;47.984;7.668;2023-05-19T04:53:28;13.30;98.10
2389;DHT22;1205;47.984;7.668;2023-05-19T04:55:54;13.20;98.00
2389;DHT22;1205;47.984;7.668;2023-05-19T04:58:21;13.30;98.10
2389;DHT22;1205;47.984;7.668;2023-05-19T05:00:46;13.20;98.10
2389;DHT22;1205;47.984;7.668;2023-05-19T05:03:12;13.30;98.00
2389;DHT22;1205;47.984;7.668;2023-05-19T05:05:38;13.40;97.90
2389;DHT22;1205;47.984;7.668;2023-05-19T05:08:04;13.40;98.20
2389;DHT22;1205;47.984;7.668;2023-05-19T05:10:31;13.40;97.80
2389;DHT22;1205;47.984;7.668;2023-05-19T05:12:57;13.70;97.60
2389;DHT22;1205;47.984;7.668;2023-05-19T05:15:22;13.70;97.60
2389;DHT22;1205;47.984;7.668;2023-05-19T05:17:49;13.60;97.50
2389;DHT22;1205;47.984;7.668;2023-05-19T05:20:15;13.70;97.40
2389;DHT22;1205;47.984;7.668;2023-05-19T05:22:40;13.70;97.60
2389;DHT22;1205;47.984;7.668;2023-05-19T05:25:07;14.00;97.40
2389;DHT22;1205;47.984;7.668;2023-05-19T05:27:33;14.20;97.40
2389;DHT22;1205;47.984;7.668;2023-05-19T05:29:58;14.40;96.80
2389;DHT22;1205;47.984;7.668;2023-05-19T05:32:24;14.20;96.80
2389;DHT22;1205;47.984;7.668;2023-05-19T05:34:49;14.00;96.80
2389;DHT22;1205;47.984;7.668;2023-05-19T05:37:15;14.10;97.40
2389;DHT22;1205;47.984;7.668;2023-05-19T05:39:41;14.30;96.90
2389;DHT22;1205;47.984;7.668;2023-05-19T05:42:06;14.50;96.80
2389;DHT22;1205;47.984;7.668;2023-05-19T05:44:35;14.70;96.80
2389;DHT22;1205;47.984;7.668;2023-05-19T05:47:01;14.80;96.40
2389;DHT22;1205;47.984;7.668;2023-05-19T05:49:27;14.40;96.70
2389;DHT22;1205;47.984;7.668;2023-05-19T05:51:53;14.50;96.90
2389;DHT22;1205;47.984;7.668;2023-05-19T05:54:21;14.50;96.70
2389;DHT22;1205;47.984;7.668;2023-05-19T05:56:47;14.50;96.90
2389;DHT22;1205;47.984;7.668;2023-05-19T05:59:13;14.80;96.70
2389;DHT22;1205;47.984;7.668;2023-05-19T06:01:39;14.90;96.30
2389;DHT22;1205;47.984;7.668;2023-05-19T06:04:06;14.90;96.40
2389;DHT22;1205;47.984;7.668;2023-05-19T06:06:32;15.00;96.40
2389;DHT22;1205;47.984;7.668;2023-05-19T06:08:58;15.30;96.70
2389;DHT22;1205;47.984;7.668;2023-05-19T06:11:24;15.50;95.80
2389;DHT22;1205;47.984;7.668;2023-05-19T06:13:49;15.40;95.90
2389;DHT22;1205;47.984;7.668;2023-05-19T06:16:15;15.60;95.90
2389;DHT22;1205;47.984;7.668;2023-05-19T06:18:40;15.80;95.20
2389;DHT22;1205;47.984;7.668;2023-05-19T06:21:06;15.90;95.30
2389;DHT22;1205;47.984;7.668;2023-05-19T06:23:34;16.10;95.00
2389;DHT22;1205;47.984;7.668;2023-05-19T06:26:00;16.30;94.50
2389;DHT22;1205;47.984;7.668;2023-05-19T06:28:26;16.40;95.00
2389;DHT22;1205;47.984;7.668;2023-05-19T06:30:51;16.50;94.60
2389;DHT22;1205;47.984;7.668;2023-05-19T06:33:17;16.80;94.40
2389;DHT22;1205;47.984;7.668;2023-05-19T06:35:42;17.00;94.30
2389;DHT22;1205;47.984;7.668;2023-05-19T06:38:08;16.90;93.70
2389;DHT22;1205;47.984;7.668;2023-05-19T06:40:34;17.10;93.30
2389;DHT22;1205;47.984;7.668;2023-05-19T06:43:01;17.50;93.60
2389;DHT22;1205;47.984;7.668;2023-05-19T06:45:27;17.50;92.80
2389;DHT22;1205;47.984;7.668;2023-05-19T06:47:52;17.50;93.00
2389;DHT22;1205;47.984;7.668;2023-05-19T06:50:18;17.50;93.10
2389;DHT22;1205;47.984;7.668;2023-05-19T06:52:44;17.70;93.00
2389;DHT22;1205;47.984;7.668;2023-05-19T06:55:11;17.70;92.90
2389;DHT22;1205;47.984;7.668;2023-05-19T06:57:37;18.00;92.30
2389;DHT22;1205;47.984;7.668;2023-05-19T07:00:03;17.90;92.30
2389;DHT22;1205;47.984;7.668;2023-05-19T07:02:30;17.90;92.40
2389;DHT22;1205;47.984;7.668;2023-05-19T07:04:55;18.00;92.10
2389;DHT22;1205;47.984;7.668;2023-05-19T07:07:21;18.00;92.30
2389;DHT22;1205;47.984;7.668;2023-05-19T07:09:47;18.20;92.20
2389;DHT22;1205;47.984;7.668;2023-05-19T07:12:13;18.10;92.50
2389;DHT22;1205;47.984;7.668;2023-05-19T07:14:38;18.20;92.10
2389;DHT22;1205;47.984;7.668;2023-05-19T07:17:04;18.20;92.00
2389;DHT22;1205;47.984;7.668;2023-05-19T07:19:29;18.40;92.20
2389;DHT22;1205;47.984;7.668;2023-05-19T07:21:55;18.50;92.10
2389;DHT22;1205;47.984;7.668;2023-05-19T07:24:21;18.80;91.50
2389;DHT22;1205;47.984;7.668;2023-05-19T07:26:47;18.80;91.00
2389;DHT22;1205;47.984;7.668;2023-05-19T07:29:12;19.00;90.90
2389;DHT22;1205;47.984;7.668;2023-05-19T07:31:38;19.30;91.30
2389;DHT22;1205;47.984;7.668;2023-05-19T07:34:04;19.60;90.70
2389;DHT22;1205;47.984;7.668;2023-05-19T07:36:29;19.20;90.60
2389;DHT22;1205;47.984;7.668;2023-05-19T07:38:55;19.10;90.80
2389;DHT22;1205;47.984;7.668;2023-05-19T07:41:21;18.90;90.90
2389;DHT22;1205;47.984;7.668;2023-05-19T07:43:47;18.80;91.00
2389;DHT22;1205;47.984;7.668;2023-05-19T07:46:13;18.80;90.70
2389;DHT22;1205;47.984;7.668;2023-05-19T07:48:38;18.70;90.50
2389;DHT22;1205;47.984;7.668;2023-05-19T07:51:04;19.10;91.00
2389;DHT22;1205;47.984;7.668;2023-05-19T07:53:30;19.30;90.50
2389;DHT22;1205;47.984;7.668;2023-05-19T07:55:55;19.30;90.30
2389;DHT22;1205;47.984;7.668;2023-05-19T07:58:21;19.40;90.30
2389;DHT22;1205;47.984;7.668;2023-05-19T08:00:47;19.20;90.00
2389;DHT22;1205;47.984;7.668;2023-05-19T08:03:12;19.10;90.30
2389;DHT22;1205;47.984;7.668;2023-05-19T08:05:41;19.00;90.60
2389;DHT22;1205;47.984;7.668;2023-05-19T08:08:07;18.80;90.60
2389;DHT22;1205;47.984;7.668;2023-05-19T08:10:33;19.10;90.80
2389;DHT22;1205;47.984;7.668;2023-05-19T08:12:58;19.60;90.60
2389;DHT22;1205;47.984;7.668;2023-05-19T08:15:24;19.80;90.40
2389;DHT22;1205;47.984;7.668;2023-05-19T08:17:49;19.50;90.30
2389;DHT22;1205;47.984;7.668;2023-05-19T08:20:15;19.90;90.00
2389;DHT22;1205;47.984;7.668;2023-05-19T08:22:41;20.10;89.70
2389;DHT22;1205;47.984;7.668;2023-05-19T08:25:07;20.00;89.60
2389;DHT22;1205;47.984;7.668;2023-05-19T08:27:33;19.70;90.50
2389;DHT22;1205;47.984;7.668;2023-05-19T08:29:59;20.10;89.90
2389;DHT22;1205;47.984;7.668;2023-05-19T08:32:25;20.20;88.90
2389;DHT22;1205;47.984;7.668;2023-05-19T08:34:50;20.50;89.50
2389;DHT22;1205;47.984;7.668;2023-05-19T08:37:16;20.50;89.20
2389;DHT22;1205;47.984;7.668;2023-05-19T08:39:41;20.50;89.50
2389;DHT22;1205;47.984;7.668;2023-05-19T08:42:07;20.40;89.30
2389;DHT22;1205;47.984;7.668;2023-05-19T08:44:35;20.20;89.20
2389;DHT22;1205;47.984;7.668;2023-05-19T08:47:02;19.60;89.80
2389;DHT22;1205;47.984;7.668;2023-05-19T08:49:42;19.40;90.00
2389;DHT22;1205;47.984;7.668;2023-05-19T08:55:20;18.70;90.30
2389;DHT22;1205;47.984;7.668;2023-05-19T08:57:49;18.70;90.70
2389;DHT22;1205;47.984;7.668;2023-05-19T09:00:15;18.50;90.30
2389;DHT22;1205;47.984;7.668;2023-05-19T09:02:42;18.70;90.90
2389;DHT22;1205;47.984;7.668;2023-05-19T09:05:08;18.80;90.70
2389;DHT22;1205;47.984;7.668;2023-05-19T09:07:35;18.80;90.70
2389;DHT22;1205;47.984;7.668;2023-05-19T09:10:02;18.80;90.50
2389;DHT22;1205;47.984;7.668;2023-05-19T09:12:28;18.70;90.50
2389;DHT22;1205;47.984;7.668;2023-05-19T09:14:54;18.70;91.10
2389;DHT22;1205;47.984;7.668;2023-05-19T09:17:19;18.70;91.40
2389;DHT22;1205;47.984;7.668;2023-05-19T09:19:45;18.60;91.20
2389;DHT22;1205;47.984;7.668;2023-05-19T09:22:15;18.70;91.30
2389;DHT22;1205;47.984;7.668;2023-05-19T09:24:41;18.60;91.50
2389;DHT22;1205;47.984;7.668;2023-05-19T09:27:07;18.80;91.40
2389;DHT22;1205;47.984;7.668;2023-05-19T09:29:32;18.80;91.40
2389;DHT22;1205;47.984;7.668;2023-05-19T09:31:58;19.30;91.40
2389;DHT22;1205;47.984;7.668;2023-05-19T09:34:29;19.30;91.50
2389;DHT22;1205;47.984;7.668;2023-05-19T09:36:55;19.40;90.30
2389;DHT22;1205;47.984;7.668;2023-05-19T09:39:22;19.40;90.20
2389;DHT22;1205;47.984;7.668;2023-05-19T09:41:51;19.40;90.60
2389;DHT22;1205;47.984;7.668;2023-05-19T09:44:23;19.50;91.20
2389;DHT22;1205;47.984;7.668;2023-05-19T09:46:53;19.30;90.60
2389;DHT22;1205;47.984;7.668;2023-05-19T09:49:23;19.30;90.70
2389;DHT22;1205;47.984;7.668;2023-05-19T09:51:57;19.40;90.40
2389;DHT22;1205;47.984;7.668;2023-05-19T09:54:24;19.40;90.30
2389;DHT22;1205;47.984;7.668;2023-05-19T09:57:02;19.50;90.10
2389;DHT22;1205;47.984;7.668;2023-05-19T09:59:29;19.40;90.50
2389;DHT22;1205;47.984;7.668;2023-05-19T10:01:56;19.50;90.00
2389;DHT22;1205;47.984;7.668;2023-05-19T10:04:23;19.40;90.50
2389;DHT22;1205;47.984;7.668;2023-05-19T10:06:49;19.60;90.60
2389;DHT22;1205;47.984;7.668;2023-05-19T10:09:24;19.70;90.70
2389;DHT22;1205;47.984;7.668;2023-05-19T10:11:57;19.40;90.20
2389;DHT22;1205;47.984;7.668;2023-05-19T10:14:27;19.70;90.20
2389;DHT22;1205;47.984;7.668;2023-05-19T10:16:54;19.70;90.20
2389;DHT22;1205;47.984;7.668;2023-05-19T10:19:21;19.80;90.40
2389;DHT22;1205;47.984;7.668;2023-05-19T10:21:48;19.70;90.30
2389;DHT22;1205;47.984;7.668;2023-05-19T10:24:14;19.70;90.00
2389;DHT22;1205;47.984;7.668;2023-05-19T10:26:45;19.60;90.20
2389;DHT22;1205;47.984;7.668;2023-05-19T10:29:14;19.30;90.40
2389;DHT22;1205;47.984;7.668;2023-05-19T10:31:42;19.20;90.70
2389;DHT22;1205;47.984;7.668;2023-05-19T10:36:56;19.50;90.70
2389;DHT22;1205;47.984;7.668;2023-05-19T10:39:33;19.50;90.90
2389;DHT22;1205;47.984;7.668;2023-05-19T10:42:35;19.50;90.80
2389;DHT22;1205;47.984;7.668;2023-05-19T10:45:18;19.60;90.80
2389;DHT22;1205;47.984;7.668;2023-05-19T10:47:45;19.70;90.60
2389;DHT22;1205;47.984;7.668;2023-05-19T10:50:11;19.50;90.00
2389;DHT22;1205;47.984;7.668;2023-05-19T10:52:38;19.90;90.30
2389;DHT22;1205;47.984;7.668;2023-05-19T10:55:06;20.10;89.40
2389;DHT22;1205;47.984;7.668;2023-05-19T10:57:33;20.10;90.40
2389;DHT22;1205;47.984;7.668;2023-05-19T11:00:05;20.20;90.50
2389;DHT22;1205;47.984;7.668;2023-05-19T11:02:46;20.20;89.70
2389;DHT22;1205;47.984;7.668;2023-05-19T11:05:13;20.10;89.80
2389;DHT22;1205;47.984;7.668;2023-05-19T11:07:54;20.20;90.60
2389;DHT22;1205;47.984;7.668;2023-05-19T11:10:23;20.10;90.00
2389;DHT22;1205;47.984;7.668;2023-05-19T11:12:49;20.10;89.70
2389;DHT22;1205;47.984;7.668;2023-05-19T11:15:15;20.00;89.30
2389;DHT22;1205;47.984;7.668;2023-05-19T11:17:44;20.30;89.50
2389;DHT22;1205;47.984;7.668;2023-05-19T11:20:23;20.30;89.70
2389;DHT22;1205;47.984;7.668;2023-05-19T11:23:04;20.30;88.60
2389;DHT22;1205;47.984;7.668;2023-05-19T11:25:41;20.30;88.50
2389;DHT22;1205;47.984;7.668;2023-05-19T11:28:07;20.20;88.50
2389;DHT22;1205;47.984;7.668;2023-05-19T11:30:32;20.20;89.10
2389;DHT22;1205;47.984;7.668;2023-05-19T11:32:58;20.00;88.80
2389;DHT22;1205;47.984;7.668;2023-05-19T11:35:24;20.20;89.30
2389;DHT22;1205;47.984;7.668;2023-05-19T11:37:53;20.10;89.70
2389;DHT22;1205;47.984;7.668;2023-05-19T11:40:20;20.30;88.10
2389;DHT22;1205;47.984;7.668;2023-05-19T11:42:45;20.50;88.20
2389;DHT22;1205;47.984;7.668;2023-05-19T11:45:11;20.30;87.90
2389;DHT22;1205;47.984;7.668;2023-05-19T11:47:37;20.60;88.70
2389;DHT22;1205;47.984;7.668;2023-05-19T11:50:03;20.70;88.60
2389;DHT22;1205;47.984;7.668;2023-05-19T11:52:29;20.70;86.90
2389;DHT22;1205;47.984;7.668;2023-05-19T11:54:59;20.70;87.00
2389;DHT22;1205;47.984;7.668;2023-05-19T11:57:25;20.80;87.00
2389;DHT22;1205;47.984;7.668;2023-05-19T11:59:51;20.90;87.50
2389;DHT22;1205;47.984;7.668;2023-05-19T12:02:19;20.90;87.10
2389;DHT22;1205;47.984;7.668;2023-05-19T12:04:48;20.80;86.80
2389;DHT22;1205;47.984;7.668;2023-05-19T12:07:15;20.80;86.50
2389;DHT22;1205;47.984;7.668;2023-05-19T12:09:47;20.60;87.10
2389;DHT22;1205;47.984;7.668;2023-05-19T12:12:17;20.70;87.00
2389;DHT22;1205;47.984;7.668;2023-05-19T12:14:47;20.80;87.40
2389;DHT22;1205;47.984;7.668;2023-05-19T12:17:14;20.90;87.90
2389;DHT22;1205;47.984;7.668;2023-05-19T12:19:42;21.00;86.00
2389;DHT22;1205;47.984;7.668;2023-05-19T12:22:09;21.20;86.80
2389;DHT22;1205;47.984;7.668;2023-05-19T12:24:36;21.20;86.70
2389;DHT22;1205;47.984;7.668;2023-05-19T12:29:40;21.20;86.20
2389;DHT22;1205;47.984;7.668;2023-05-19T12:32:07;21.20;86.50
2389;DHT22;1205;47.984;7.668;2023-05-19T12:34:37;21.30;86.20
2389;DHT22;1205;47.984;7.668;2023-05-19T12:37:04;21.10;86.00
2389;DHT22;1205;47.984;7.668;2023-05-19T12:39:30;21.00;85.50
2389;DHT22;1205;47.984;7.668;2023-05-19T12:42:25;20.80;87.10
2389;DHT22;1205;47.984;7.668;2023-05-19T12:44:51;20.90;87.10
2389;DHT22;1205;47.984;7.668;2023-05-19T12:47:19;21.20;87.20
2389;DHT22;1205;47.984;7.668;2023-05-19T12:50:04;21.10;85.40
2389;DHT22;1205;47.984;7.668;2023-05-19T12:52:33;20.90;87.20
2389;DHT22;1205;47.984;7.668;2023-05-19T12:55:04;21.00;86.40
2389;DHT22;1205;47.984;7.668;2023-05-19T12:57:39;20.90;86.30
2389;DHT22;1205;47.984;7.668;2023-05-19T13:00:15;20.80;86.20
2389;DHT22;1205;47.984;7.668;2023-05-19T13:03:03;21.00;87.50
2389;DHT22;1205;47.984;7.668;2023-05-19T13:05:31;20.90;87.20
2389;DHT22;1205;47.984;7.668;2023-05-19T13:08:16;20.70;87.20
2389;DHT22;1205;47.984;7.668;2023-05-19T13:10:43;20.80;87.90
2389;DHT22;1205;47.984;7.668;2023-05-19T13:13:10;21.00;87.10
2389;DHT22;1205;47.984;7.668;2023-05-19T13:15:39;21.00;86.20
2389;DHT22;1205;47.984;7.668;2023-05-19T13:18:06;21.00;87.30
2389;DHT22;1205;47.984;7.668;2023-05-19T13:20:36;20.80;85.80
2389;DHT22;1205;47.984;7.668;2023-05-19T13:23:02;20.80;86.30
2389;DHT22;1205;47.984;7.668;2023-05-19T13:25:27;20.70;87.00
2389;DHT22;1205;47.984;7.668;2023-05-19T13:27:53;20.80;86.40
2389;DHT22;1205;47.984;7.668;2023-05-19T13:30:19;20.90;86.30
2389;DHT22;1205;47.984;7.668;2023-05-19T13:32:46;20.70;86.60
2389;DHT22;1205;47.984;7.668;2023-05-19T13:35:12;21.00;87.00
2389;DHT22;1205;47.984;7.668;2023-05-19T13:37:39;21.00;86.00
2389;DHT22;1205;47.984;7.668;2023-05-19T13:40:05;20.80;86.00
2389;DHT22;1205;47.984;7.668;2023-05-19T13:42:32;20.70;86.10
2389;DHT22;1205;47.984;7.668;2023-05-19T13:44:58;20.60;86.30
2389;DHT22;1205;47.984;7.668;2023-05-19T13:47:23;20.50;87.00
2389;DHT22;1205;47.984;7.668;2023-05-19T13:49:49;20.70;87.30
2389;DHT22;1205;47.984;7.668;2023-05-19T13:52:15;20.60;86.70
2389;DHT22;1205;47.984;7.668;2023-05-19T13:54:41;20.80;86.50
2389;DHT22;1205;47.984;7.668;2023-05-19T13:57:07;20.80;86.60
2389;DHT22;1205;47.984;7.668;2023-05-19T13:59:32;20.80;86.50
2389;DHT22;1205;47.984;7.668;2023-05-19T14:01:59;20.60;87.70
2389;DHT22;1205;47.984;7.668;2023-05-19T14:04:24;20.30;86.40
2389;DHT22;1205;47.984;7.668;2023-05-19T14:06:50;20.30;87.30
2389;DHT22;1205;47.984;7.668;2023-05-19T14:09:16;20.20;87.20
2389;DHT22;1205;47.984;7.668;2023-05-19T14:11:42;20.20;87.80
2389;DHT22;1205;47.984;7.668;2023-05-19T14:14:08;20.20;87.80
2389;DHT22;1205;47.984;7.668;2023-05-19T14:16:34;20.40;88.20
2389;DHT22;1205;47.984;7.668;2023-05-19T14:18:59;20.30;87.70
2389;DHT22;1205;47.984;7.668;2023-05-19T14:21:26;20.20;88.00
2389;DHT22;1205;47.984;7.668;2023-05-19T14:23:51;20.10;88.20
2389;DHT22;1205;47.984;7.668;2023-05-19T14:26:17;20.20;87.70
2389;DHT22;1205;47.984;7.668;2023-05-19T14:28:44;20.20;87.90
2389;DHT22;1205;47.984;7.668;2023-05-19T14:31:13;20.30;88.00
2389;DHT22;1205;47.984;7.668;2023-05-19T14:33:39;20.40;87.80
2389;DHT22;1205;47.984;7.668;2023-05-19T14:36:06;20.20;87.80
2389;DHT22;1205;47.984;7.668;2023-05-19T14:38:31;20.50;87.90
2389;DHT22;1205;47.984;7.668;2023-05-19T14:40:57;20.50;87.90
2389;DHT22;1205;47.984;7.668;2023-05-19T14:43:23;20.50;87.50
2389;DHT22;1205;47.984;7.668;2023-05-19T14:45:48;20.70;87.50
2389;DHT22;1205;47.984;7.668;2023-05-19T14:48:14;20.70;86.80
2389;DHT22;1205;47.984;7.668;2023-05-19T14:50:40;20.40;87.30
2389;DHT22;1205;47.984;7.668;2023-05-19T14:53:05;20.40;87.40
2389;DHT22;1205;47.984;7.668;2023-05-19T14:55:31;20.20;87.30
2389;DHT22;1205;47.984;7.668;2023-05-19T14:57:56;20.10;88.10
2389;DHT22;1205;47.984;7.668;2023-05-19T15:00:22;20.10;87.90
2389;DHT22;1205;47.984;7.668;2023-05-19T15:02:51;20.00;89.10
2389;DHT22;1205;47.984;7.668;2023-05-19T15:05:16;20.00;88.40
2389;DHT22;1205;47.984;7.668;2023-05-19T15:07:42;20.10;88.00
2389;DHT22;1205;47.984;7.668;2023-05-19T15:10:08;20.10;88.10
2389;DHT22;1205;47.984;7.668;2023-05-19T15:12:33;20.20;87.90
2389;DHT22;1205;47.984;7.668;2023-05-19T15:14:59;20.10;88.40
2389;DHT22;1205;47.984;7.668;2023-05-19T15:17:25;20.00;89.00
2389;DHT22;1205;47.984;7.668;2023-05-19T15:19:50;20.00;88.40
2389;DHT22;1205;47.984;7.668;2023-05-19T15:22:16;19.70;88.50
2389;DHT22;1205;47.984;7.668;2023-05-19T15:24:41;19.80;88.90
2389;DHT22;1205;47.984;7.668;2023-05-19T15:27:07;19.50;89.40
2389;DHT22;1205;47.984;7.668;2023-05-19T15:29:33;19.40;89.50
2389;DHT22;1205;47.984;7.668;2023-05-19T15:31:59;19.50;89.60
2389;DHT22;1205;47.984;7.668;2023-05-19T15:34:25;19.40;89.90
2389;DHT22;1205;47.984;7.668;2023-05-19T15:36:51;19.50;89.50
2389;DHT22;1205;47.984;7.668;2023-05-19T15:39:16;19.30;89.50
2389;DHT22;1205;47.984;7.668;2023-05-19T15:41:42;19.20;90.00
2389;DHT22;1205;47.984;7.668;2023-05-19T15:44:07;19.00;90.00
2389;DHT22;1205;47.984;7.668;2023-05-19T15:46:33;18.80;90.60
2389;DHT22;1205;47.984;7.668;2023-05-19T15:48:59;18.70;90.60
2389;DHT22;1205;47.984;7.668;2023-05-19T15:51:25;18.60;90.60
2389;DHT22;1205;47.984;7.668;2023-05-19T15:53:51;18.50;90.60
2389;DHT22;1205;47.984;7.668;2023-05-19T15:56:17;18.60;90.70
2389;DHT22;1205;47.984;7.668;2023-05-19T15:58:44;18.60;90.80
2389;DHT22;1205;47.984;7.668;2023-05-19T16:01:09;18.60;90.70
2389;DHT22;1205;47.984;7.668;2023-05-19T16:03:35;18.50;90.90
2389;DHT22;1205;47.984;7.668;2023-05-19T16:06:01;18.40;90.90
2389;DHT22;1205;47.984;7.668;2023-05-19T16:08:26;18.50;91.00
2389;DHT22;1205;47.984;7.668;2023-05-19T16:10:52;18.50;90.90
2389;DHT22;1205;47.984;7.668;2023-05-19T16:13:19;18.40;91.30
2389;DHT22;1205;47.984;7.668;2023-05-19T16:15:45;18.40;91.30
2389;DHT22;1205;47.984;7.668;2023-05-19T16:18:10;18.00;91.50
2389;DHT22;1205;47.984;7.668;2023-05-19T16:20:36;18.00;91.80
2389;DHT22;1205;47.984;7.668;2023-05-19T16:23:02;18.00;91.70
2389;DHT22;1205;47.984;7.668;2023-05-19T16:25:28;18.00;91.70